PWSweather.com
Personal Weather Stations
Station Observations
EDDERTON
Rossshire, EddertonGB IV191LA

RossshireEddertonGB IV191LA

Lat: 57.838, Lon: -4.176

Elevation: 60

Station Type: Davis Vantage PRO2 Wireless With Solar Sensor

http://www.ardmore-lodge.com

Latest ConditionsUpdated 9:45:00 AM GMT Friday, Mar 27, 2015
Currently Today's Max Today's Min Today's Average
Temperature 44.0°F6.7°C 44.0°F6.7°C 35.8°F2.1°C 39.1°F3.9°C
Dew Point 38.3°F3.5°C 38.3°F3.5°C 32.7°F0.4°C 35.0°F1.7°C
Winds 5.8 mph SW9.3 kmh SW 6.9 mph SW11.1 kmh SW - 2.8 mph 4.5 kmh
Wind Gusts 9.2 mph14.8 kmh 11.5 mph18.5 kmh - -
Humidity 80% 90% 78% 85%
Pressure 29.86 in1011.2 mb 29.91 in1012.9 mb 29.82 in1009.8 mb -
Hour Temp Dew Point Humidity Winds Wind Gusts Pressure Precip Precip Rate Daily Precip Total
09:45 AM 44.0°F6.7°C 38.3°F3.5°C 80% 5.8 mph SW9.3 kmh SW 9.2 mph14.8 kmh 29.86 in1011.2 mb - 0.00 in0.0 mm 0.00 in0.0 mm
09:30 AM 42.8°F6.0°C 37.3°F2.9°C 81% 3.5 mph SW5.6 kmh SW 5.8 mph9.3 kmh 29.87 in1011.5 mb - 0.00 in0.0 mm 0.00 in0.0 mm
09:15 AM 42.6°F5.9°C 36.9°F2.7°C 80% 6.9 mph SW11.1 kmh SW 11.5 mph18.5 kmh 29.87 in1011.5 mb - 0.00 in0.0 mm 0.00 in0.0 mm
09:00 AM 42.9°F6.1°C 37.2°F2.9°C 80% 6.9 mph SW11.1 kmh SW 10.4 mph16.7 kmh 29.88 in1011.9 mb - 0.00 in0.0 mm 0.00 in0.0 mm
08:45 AM 42.7°F5.9°C 36.9°F2.7°C 80% Calm Calm -- 29.89 in1012.2 mb - 0.00 in0.0 mm 0.00 in0.0 mm
08:30 AM 41.9°F5.5°C 35.9°F2.2°C 79% 4.6 mph SW7.4 kmh SW 5.8 mph9.3 kmh 29.88 in1011.9 mb - 0.00 in0.0 mm 0.00 in0.0 mm
08:15 AM 41.0°F5.0°C 36.3°F2.4°C 83% 6.9 mph SW11.1 kmh SW 10.4 mph16.7 kmh 29.89 in1012.2 mb - 0.00 in0.0 mm 0.00 in0.0 mm
08:00 AM 39.7°F4.3°C 35.9°F2.2°C 86% 1.2 mph SW1.9 kmh SW 2.3 mph3.7 kmh 29.90 in1012.5 mb - 0.00 in0.0 mm 0.00 in0.0 mm
07:45 AM 38.9°F3.8°C 35.7°F2.1°C 88% Calm Calm 1.2 mph1.9 kmh 29.90 in1012.5 mb - 0.00 in0.0 mm 0.00 in0.0 mm
07:30 AM 38.0°F3.3°C 34.8°F1.6°C 88% Calm Calm 1.2 mph1.9 kmh 29.91 in1012.9 mb - 0.00 in0.0 mm 0.00 in0.0 mm
07:15 AM 37.5°F3.1°C 34.3°F1.3°C 88% Calm Calm -- 29.91 in1012.9 mb - 0.00 in0.0 mm 0.00 in0.0 mm
07:00 AM 37.4°F3.0°C 34.2°F1.2°C 88% 1.2 mph SW1.9 kmh SW 2.3 mph3.7 kmh 29.90 in1012.5 mb - 0.00 in0.0 mm 0.00 in0.0 mm
06:45 AM 37.4°F3.0°C 33.9°F1.1°C 87% 2.3 mph SW3.7 kmh SW 3.5 mph5.6 kmh 29.89 in1012.2 mb - 0.00 in0.0 mm 0.00 in0.0 mm
06:30 AM 37.5°F3.1°C 33.7°F0.9°C 86% 2.3 mph SW3.7 kmh SW 3.5 mph5.6 kmh 29.88 in1011.9 mb - 0.00 in0.0 mm 0.00 in0.0 mm
06:15 AM 38.2°F3.4°C 33.8°F1.0°C 84% 1.2 mph SW1.9 kmh SW 1.2 mph1.9 kmh 29.88 in1011.9 mb - 0.00 in0.0 mm 0.00 in0.0 mm
06:00 AM 39.0°F3.9°C 34.3°F1.3°C 83% 3.5 mph SW5.6 kmh SW 4.6 mph7.4 kmh 29.87 in1011.5 mb - 0.00 in0.0 mm 0.00 in0.0 mm
05:45 AM 38.7°F3.7°C 34.2°F1.2°C 84% 6.9 mph SW11.1 kmh SW 8.1 mph13.0 kmh 29.86 in1011.2 mb - 0.00 in0.0 mm 0.00 in0.0 mm
05:30 AM 37.3°F2.9°C 33.8°F1.0°C 87% 3.5 mph W5.6 kmh W 3.5 mph5.6 kmh 29.87 in1011.5 mb - 0.00 in0.0 mm 0.00 in0.0 mm
05:15 AM 37.3°F2.9°C 33.8°F1.0°C 87% 2.3 mph W3.7 kmh W 3.5 mph5.6 kmh 29.86 in1011.2 mb - 0.00 in0.0 mm 0.00 in0.0 mm
05:00 AM 36.9°F2.7°C 33.7°F0.9°C 88% 2.3 mph W3.7 kmh W 3.5 mph5.6 kmh 29.86 in1011.2 mb - 0.00 in0.0 mm 0.00 in0.0 mm
04:45 AM 36.3°F2.4°C 33.4°F0.8°C 89% 2.3 mph W3.7 kmh W 3.5 mph5.6 kmh 29.87 in1011.5 mb - 0.00 in0.0 mm 0.00 in0.0 mm
04:30 AM 36.3°F2.4°C 33.4°F0.8°C 89% 1.2 mph W1.9 kmh W 2.3 mph3.7 kmh 29.86 in1011.2 mb - 0.00 in0.0 mm 0.00 in0.0 mm
04:15 AM 36.4°F2.4°C 33.4°F0.8°C 89% 1.2 mph W1.9 kmh W 3.5 mph5.6 kmh 29.87 in1011.5 mb - 0.00 in0.0 mm 0.00 in0.0 mm
04:00 AM 36.4°F2.4°C 33.5°F0.8°C 89% 1.2 mph W1.9 kmh W 2.3 mph3.7 kmh 29.87 in1011.5 mb - 0.00 in0.0 mm 0.00 in0.0 mm
03:45 AM 35.8°F2.1°C 33.2°F0.7°C 90% 2.3 mph WNW3.7 kmh WNW 3.5 mph5.6 kmh 29.86 in1011.2 mb - 0.00 in0.0 mm 0.00 in0.0 mm
03:30 AM 35.9°F2.2°C 32.7°F0.4°C 88% Calm Calm -- 29.86 in1011.2 mb - 0.00 in0.0 mm 0.00 in0.0 mm
03:15 AM 37.0°F2.8°C 33.2°F0.7°C 86% Calm Calm 1.2 mph1.9 kmh 29.86 in1011.2 mb - 0.00 in0.0 mm 0.00 in0.0 mm
03:00 AM 38.8°F3.8°C 35.0°F1.7°C 86% 1.2 mph WNW1.9 kmh WNW 2.3 mph3.7 kmh 29.85 in1010.8 mb - 0.00 in0.0 mm 0.00 in0.0 mm
02:45 AM 38.8°F3.8°C 35.6°F2.0°C 88% 3.5 mph WNW5.6 kmh WNW 4.6 mph7.4 kmh 29.85 in1010.8 mb - 0.00 in0.0 mm 0.00 in0.0 mm
02:30 AM 38.5°F3.6°C 35.5°F1.9°C 89% 2.3 mph WNW3.7 kmh WNW 3.5 mph5.6 kmh 29.85 in1010.8 mb - 0.00 in0.0 mm 0.00 in0.0 mm
02:15 AM 38.8°F3.8°C 35.6°F2.0°C 88% Calm Calm -- 29.85 in1010.8 mb - 0.00 in0.0 mm 0.00 in0.0 mm
02:00 AM 38.5°F3.6°C 35.3°F1.8°C 88% 3.5 mph W5.6 kmh W 11.5 mph18.5 kmh 29.85 in1010.8 mb - 0.00 in0.0 mm 0.00 in0.0 mm
01:45 AM 38.9°F3.8°C 35.4°F1.9°C 87% Calm Calm 1.2 mph1.9 kmh 29.84 in1010.5 mb - 0.00 in0.0 mm 0.00 in0.0 mm
01:30 AM 39.6°F4.2°C 35.4°F1.9°C 85% Calm Calm 1.2 mph1.9 kmh 29.85 in1010.8 mb - 0.00 in0.0 mm 0.00 in0.0 mm
01:15 AM 40.3°F4.6°C 36.1°F2.3°C 85% 4.6 mph W7.4 kmh W 6.9 mph11.1 kmh 29.84 in1010.5 mb - 0.00 in0.0 mm 0.00 in0.0 mm
01:00 AM 40.6°F4.8°C 36.4°F2.4°C 85% 6.9 mph W11.1 kmh W 9.2 mph14.8 kmh 29.83 in1010.2 mb - 0.00 in0.0 mm 0.00 in0.0 mm
12:45 AM 40.8°F4.9°C 36.4°F2.4°C 84% 6.9 mph W11.1 kmh W 10.4 mph16.7 kmh 29.84 in1010.5 mb - 0.00 in0.0 mm 0.00 in0.0 mm
12:30 AM 41.3°F5.2°C 36.5°F2.5°C 83% 6.9 mph W11.1 kmh W 11.5 mph18.5 kmh 29.83 in1010.2 mb - 0.00 in0.0 mm 0.00 in0.0 mm
12:15 AM 40.5°F4.7°C 35.7°F2.1°C 83% 4.6 mph W7.4 kmh W 5.8 mph9.3 kmh 29.83 in1010.2 mb - 0.00 in0.0 mm 0.00 in0.0 mm
12:00 AM 40.9°F4.9°C 34.6°F1.4°C 78% 2.3 mph W3.7 kmh W 2.3 mph3.7 kmh 29.82 in1009.8 mb - 0.00 in0.0 mm 0.00 in0.0 mm